createdAt,value
2019-06-07T00:01:09.641Z,1016.4
2019-06-07T00:06:42.193Z,1016.5
2019-06-07T00:12:16.892Z,1016.5
2019-06-07T00:17:47.455Z,1016.5
2019-06-07T00:23:22.554Z,1016.6
2019-06-07T00:28:52.705Z,1016.6
2019-06-07T00:34:25.218Z,1016.6
2019-06-07T00:40:13.188Z,1016.7
2019-06-07T00:45:30.383Z,1016.7
2019-06-07T00:51:02.997Z,1016.7
2019-06-07T00:56:35.609Z,1016.7
2019-06-07T01:02:08.246Z,1016.6
2019-06-07T01:07:40.799Z,1016.6
2019-06-07T01:13:15.031Z,1016.5
2019-06-07T01:18:47.370Z,1016.5
2019-06-07T01:24:20.015Z,1016.6
2019-06-07T01:29:51.157Z,1016.5
2019-06-07T01:35:25.421Z,1016.5
2019-06-07T01:40:56.206Z,1016.6
2019-06-07T01:46:28.811Z,1016.6
2019-06-07T01:52:01.273Z,1016.3
2019-06-07T01:57:45.270Z,1016.3
2019-06-07T02:03:06.395Z,1016.2
2019-06-07T02:08:38.927Z,1016.2
2019-06-07T02:14:11.416Z,1016.3
2019-06-07T02:19:43.890Z,1016.3
2019-06-07T02:25:35.594Z,1016.2
2019-06-07T02:30:59.352Z,1016.2
2019-06-07T02:36:25.381Z,1016.3
2019-06-07T02:41:53.879Z,1016.4
2019-06-07T02:47:28.603Z,1016.3
2019-06-07T02:52:58.911Z,1016.2
2019-06-07T02:58:37.791Z,1016.2
2019-06-07T03:04:03.825Z,1016.3
2019-06-07T03:09:37.057Z,1016.2
2019-06-07T03:15:08.837Z,1016.3
2019-06-07T03:20:41.226Z,1016.2
2019-06-07T03:26:13.756Z,1016.1
2019-06-07T03:31:47.824Z,1016.1
2019-06-07T03:37:18.720Z,1016
2019-06-07T03:42:51.140Z,1016.1
2019-06-07T03:48:23.645Z,1016.1
2019-06-07T03:53:56.163Z,1016.1
2019-06-07T03:59:31.238Z,1016.1
2019-06-07T04:05:01.227Z,1016
2019-06-07T04:10:52.975Z,1015.9
2019-06-07T04:16:06.467Z,1015.8
2019-06-07T04:21:42.448Z,1015.8
2019-06-07T04:27:11.756Z,1015.6
2019-06-07T04:32:45.093Z,1015.6
2019-06-07T04:38:17.139Z,1015.6
2019-06-07T04:43:49.665Z,1015.6
2019-06-07T04:49:22.347Z,1015.4
2019-06-07T04:54:55.041Z,1015.3
2019-06-07T05:00:49.533Z,1015.2
2019-06-07T05:06:00.510Z,1015.1
2019-06-07T05:11:33.849Z,1014.9
2019-06-07T05:17:06.078Z,1014.8
2019-06-07T05:22:44.302Z,1014.5
2019-06-07T05:28:12.433Z,1014.4
2019-06-07T05:33:45.662Z,1014.3
2019-06-07T05:39:19.282Z,1014.2
2019-06-07T05:44:53.061Z,1014.3
2019-06-07T05:50:44.649Z,1014.3
2019-06-07T05:56:00.597Z,1014.2
2019-06-07T06:01:43.485Z,1014.2
2019-06-07T06:07:08.194Z,1014.2
2019-06-07T06:12:45.936Z,1014.2
2019-06-07T06:18:15.748Z,1014.1
2019-06-07T06:23:51.570Z,1014
2019-06-07T06:29:23.599Z,1013.9
2019-06-07T06:34:57.297Z,1013.9
2019-06-07T06:40:31.098Z,1013.8
2019-06-07T06:46:05.122Z,1013.8
2019-06-07T06:51:39.246Z,1013.8
2019-06-07T06:57:19.371Z,1013.8
2019-06-07T07:03:35.952Z,1013.8
2019-06-07T07:08:20.397Z,1013.7
2019-06-07T07:13:56.834Z,1013.6
2019-06-07T07:19:28.071Z,1013.6
2019-06-07T07:25:02.081Z,1013.5
2019-06-07T07:30:37.238Z,1013.6
2019-06-07T07:36:28.425Z,1013.5
2019-06-07T07:42:00.778Z,1013.3
2019-06-07T07:47:17.573Z,1013.2
2019-06-07T07:52:55.816Z,1013.1
2019-06-07T07:58:25.613Z,1013
2019-06-07T08:03:59.608Z,1012.8
2019-06-07T08:09:33.617Z,1012.9
2019-06-07T08:15:07.642Z,1012.8
2019-06-07T08:21:01.295Z,1012.7
2019-06-07T08:26:15.937Z,1012.8
2019-06-07T08:31:51.436Z,1012.6
2019-06-07T08:38:07.729Z,1012.5
2019-06-07T08:43:12.913Z,1012.6
2019-06-07T08:48:32.479Z,1012.4
2019-06-07T08:54:21.445Z,1012.3
2019-06-07T08:59:41.100Z,1012.3
2019-06-07T09:05:15.219Z,1012
2019-06-07T09:10:49.573Z,1012
2019-06-07T09:16:24.114Z,1012.1
2019-06-07T09:22:03.067Z,1012
2019-06-07T09:27:32.957Z,1012
2019-06-07T09:33:08.936Z,1011.9
2019-06-07T09:38:41.909Z,1012
2019-06-07T09:44:24.497Z,1011.9
2019-06-07T09:49:50.896Z,1011.5
2019-06-07T09:55:25.737Z,1011.6
2019-06-07T10:01:05.779Z,1011.3
2019-06-07T10:06:35.477Z,1011
2019-06-07T10:12:10.629Z,1010.8
2019-06-07T10:17:46.060Z,1010.7
2019-06-07T10:23:21.427Z,1010.8
2019-06-07T10:29:01.850Z,1010.5
2019-06-07T10:34:36.307Z,1010.5
2019-06-07T10:40:11.616Z,1010.4
2019-06-07T10:45:46.957Z,1009.9
2019-06-07T10:51:22.430Z,1010.1
2019-06-07T10:56:57.740Z,1009.9
2019-06-07T11:02:33.154Z,1009.9
2019-06-07T11:08:10.055Z,1009.8
2019-06-07T11:13:43.313Z,1010
2019-06-07T11:19:19.694Z,1009.7
2019-06-07T11:24:52.724Z,1009.7
2019-06-07T11:30:27.575Z,1009.4
2019-06-07T11:36:02.700Z,1009.4
2019-06-07T11:41:38.386Z,1009
2019-06-07T11:47:14.503Z,1009
2019-06-07T11:52:49.334Z,1009.1
2019-06-07T11:58:24.760Z,1009
2019-06-07T12:03:59.846Z,1008.8
2019-06-07T12:09:35.588Z,1008.7
2019-06-07T12:15:12.913Z,1008.6
2019-06-07T12:20:48.086Z,1008.7
2019-06-07T12:26:24.373Z,1008.7
2019-06-07T12:32:00.010Z,1008.6
2019-06-07T12:37:43.521Z,1008.7
2019-06-07T12:43:12.662Z,1008.3
2019-06-07T12:48:48.934Z,1008.4
2019-06-07T12:54:25.366Z,1008.4
2019-06-07T13:00:01.778Z,1008.6
2019-06-07T13:05:37.972Z,1008.8
2019-06-07T13:11:20.117Z,1008.9
2019-06-07T13:16:49.792Z,1008.7
2019-06-07T13:22:25.632Z,1008.8
2019-06-07T13:28:01.152Z,1008.8
2019-06-07T13:33:38.735Z,1008.9
2019-06-07T13:39:12.268Z,1008.9
2019-06-07T13:44:47.861Z,1009.1
2019-06-07T13:50:24.040Z,1009.1
2019-06-07T13:55:58.847Z,1009.1
2019-06-07T14:01:34.213Z,1009.2
2019-06-07T14:07:09.570Z,1009.2
2019-06-07T14:12:44.832Z,1009.2
2019-06-07T14:18:20.341Z,1009.3
2019-06-07T14:23:54.737Z,1009.4
2019-06-07T14:29:30.179Z,1009.6
2019-06-07T14:35:05.248Z,1009.5
2019-06-07T14:40:40.297Z,1009.3
2019-06-07T14:46:14.797Z,1009.5
2019-06-07T14:51:49.387Z,1009.5
2019-06-07T14:57:25.095Z,1009.4
2019-06-07T15:02:58.271Z,1009.7
2019-06-07T15:08:33.094Z,1009.6
2019-06-07T15:14:07.159Z,1009.8
2019-06-07T15:19:41.552Z,1009.7
2019-06-07T15:25:15.950Z,1009.8
2019-06-07T15:30:50.928Z,1009.9
2019-06-07T15:36:26.192Z,1010.3
2019-06-07T15:42:01.505Z,1010.2
2019-06-07T15:47:38.283Z,1010.6
2019-06-07T15:53:12.215Z,1010.4
2019-06-07T15:58:47.703Z,1010.8
2019-06-07T16:04:23.231Z,1010.8
2019-06-07T16:09:58.665Z,1011.1
2019-06-07T16:15:34.724Z,1011.4
2019-06-07T16:21:08.920Z,1011.9
2019-06-07T16:26:44.547Z,1012
2019-06-07T16:32:18.695Z,1012.2
2019-06-07T16:37:53.513Z,1012.3
2019-06-07T16:43:28.279Z,1012.8
2019-06-07T16:49:02.953Z,1013
2019-06-07T16:54:37.585Z,1013.2
2019-06-07T17:00:12.096Z,1013.5
2019-06-07T17:05:49.909Z,1013.9
2019-06-07T17:11:21.240Z,1014.1
2019-06-07T17:16:55.770Z,1014.2
2019-06-07T17:22:30.231Z,1014.5
2019-06-07T17:28:04.683Z,1014.9
2019-06-07T17:33:39.779Z,1015.1
2019-06-07T17:39:13.665Z,1015.2
2019-06-07T17:44:52.541Z,1015.2
2019-06-07T17:50:26.961Z,1015.3
2019-06-07T17:56:01.371Z,1015.5
2019-06-07T18:01:41.285Z,1015.6
2019-06-07T18:07:09.920Z,1015.8
2019-06-07T18:12:43.970Z,1015.8
2019-06-07T18:18:17.230Z,1016
2019-06-07T18:23:52.834Z,1016
2019-06-07T18:29:25.500Z,1016.3
2019-06-07T18:35:00.392Z,1016.5
2019-06-07T18:40:34.248Z,1016.7
2019-06-07T18:46:07.944Z,1016.7
2019-06-07T18:51:42.250Z,1016.9
2019-06-07T18:57:16.510Z,1017
2019-06-07T19:02:51.839Z,1017.1
2019-06-07T19:08:24.888Z,1017.2
2019-06-07T19:13:59.313Z,1017.2
2019-06-07T19:19:33.079Z,1017.3
2019-06-07T19:25:06.795Z,1017.3
2019-06-07T19:30:41.049Z,1017.7
2019-06-07T19:36:15.315Z,1018
2019-06-07T19:41:49.567Z,1018.3
2019-06-07T19:47:23.676Z,1018.4
2019-06-07T19:52:59.067Z,1018.5
2019-06-07T19:58:31.777Z,1018.8
2019-06-07T20:04:05.734Z,1019
2019-06-07T20:09:39.149Z,1019.1
2019-06-07T20:15:27.629Z,1019.3
2019-06-07T20:20:47.101Z,1019.4
2019-06-07T20:26:21.105Z,1019.4
2019-06-07T20:31:54.700Z,1019.5
2019-06-07T20:37:33.282Z,1019.5
2019-06-07T20:43:08.203Z,1019.5
2019-06-07T20:48:41.588Z,1019.5
2019-06-07T20:54:15.714Z,1019.5
2019-06-07T20:59:49.972Z,1019.6
2019-06-07T21:05:24.084Z,1019.6
2019-06-07T21:10:59.841Z,1019.7
2019-06-07T21:16:32.469Z,1019.9
2019-06-07T21:22:06.884Z,1019.9
2019-06-07T21:27:40.654Z,1019.8
2019-06-07T21:33:14.787Z,1019.8
2019-06-07T21:38:48.970Z,1019.9
2019-06-07T21:44:23.183Z,1019.8
2019-06-07T21:49:57.188Z,1019.8
2019-06-07T21:55:31.373Z,1019.9
2019-06-07T22:01:06.669Z,1019.8
2019-06-07T22:06:39.722Z,1019.9
2019-06-07T22:12:14.237Z,1020.1
2019-06-07T22:17:47.986Z,1020.3
2019-06-07T22:23:22.141Z,1020.3
2019-06-07T22:28:56.252Z,1020.3
2019-06-07T22:34:30.408Z,1020.5
2019-06-07T22:40:04.550Z,1020.5
2019-06-07T22:45:38.589Z,1020.4
2019-06-07T22:51:14.412Z,1020.6
2019-06-07T22:56:46.864Z,1020.7
2019-06-07T23:02:20.937Z,1020.9
2019-06-07T23:07:54.665Z,1020.9
2019-06-07T23:13:28.479Z,1021.1
2019-06-07T23:19:02.631Z,1021.2
2019-06-07T23:24:36.645Z,1021.2
2019-06-07T23:30:10.815Z,1021.5
2019-06-07T23:35:44.918Z,1021.5
2019-06-07T23:41:20.377Z,1021.8
2019-06-07T23:46:53.164Z,1021.9
2019-06-07T23:52:27.126Z,1022.1
2019-06-07T23:58:01.147Z,1022.3
